Tiempo atmosférico en la estación meteorológica de Campos, Salines Llevant, Illes Balears (3 m.)



Fecha
DESCASC
Temp. máxima en grados centígrados (hora)
DESCASC
Temp. mínima en grados centígrados (hora)
DESCASC
Temp. media en grados centígrados
DESCASC
Racha de viento máxima en m/sg (hora)
DESCASC
Velocidad máxima media en intervalos de 10 minutos(hora)
DESCASC
Precipitaciones diarias en mm
DESCASC
Precipitaciones de 00:00 a 06:00 en mm
DESCASC
Precipitaciones de 06:00 a 12:00 en mm
DESCASC
Precipitaciones de 12:00 a 18:00 en mm
DESCASC
Precipitaciones de 18:00 a 24:00 en mm
DESCASC
18-02-2018 14.8 (12:10) 4.6 (23:59) 9.7 7.78 (14:40) 4.44 (13:00) 0 0 0 0 0
17-02-2018 17 (11:50) 5 (07:30) 11 8.89 (22:40) 5.83 (20:20) 0 0 0 0 0
16-02-2018 17.8 (16:20) 6.3 (04:10) 12 3.61 (16:40) 2.5 (14:30) 0.2 0 0.2 0 0
15-02-2018 17.2 (14:30) 6.3 (00:00) 11.8 6.11 (12:50) 4.17 (12:20) 0 0 0 0 0
14-02-2018 16.8 (14:20) 8 (00:00) 12.4 13.61 (00:10) 9.17 (00:10) 0 0 0 0 0
13-02-2018 13.3 (23:40) -0.2 (00:00) 6.6 17.22 (20:40) 9.72 (18:00) 0.2 0.2 0 0 0
12-02-2018 13.2 (00:00) 6 (00:00) 9.6 8.89 (16:50) 5.56 (16:50) 12.4 0 3.8 5.4 3.2
11-02-2018 14.1 (16:40) -2.8 (-00:0) 5.7 11.94 (14:40) 8.33 (14:30) 0 0 0 0 0
10-02-2018 9.5 (14:40) -0.4 (00:00) 4.5 12.78 (14:40) 8.33 (15:20) 4.6 0.2 4.2 0.2 0
09-02-2018 9.4 (16:50) -1.8 (-00:0) 3.8 6.67 (14:10) 4.44 (14:30) 2.6 0 0 2.6 0
08-02-2018 12 (14:30) 0.3 (00:00) 6.2 7.78 (15:50) 5.28 (15:50) 0 0 0 0 0
07-02-2018 10.8 (14:10) 6.1 (00:00) 8.5 7.5 (03:40) 4.44 (03:40) 0.2 0.2 0 0 0
06-02-2018 11 (13:40) 5 (00:00) 8 9.17 (10:20) 5 (10:20) 7.6 0.6 1.2 3.2 2.6
05-02-2018 15.2 (12:10) 8.3 (00:00) 11.8 10 (12:10) 6.39 (10:40) 0 0 0 0 0
04-02-2018 15.6 (12:50) 8 (00:00) 11.8 11.39 (01:30) 7.22 (00:20) 3.4 0 0 3.2 0.2
03-02-2018 12.4 (23:59) -1.2 (-00:0) 5.6 11.39 (23:50) 7.78 (14:50) 0.2 0 0 0.2 0
02-02-2018 9.8 (00:00) 3.7 (00:00) 6.8 15.83 (11:40) 10 (14:10) 20.4 7.6 10.6 2.2 0
01-02-2018 15.1 (13:40) 2.1 (00:00) 8.6 15.28 (18:00) 6.67 (18:00) 0 0 0 0 0
31-01-2018 16.7 (13:20) 1.4 (00:00) 9.1 6.11 (12:10) 3.33 (15:00) 0 0 0 0 0
30-01-2018 17 (13:30) 1.2 (00:00) 9.1 5 (14:40) 3.61 (17:00) 0 0 0 0 0
29-01-2018 17.7 (15:10) 4.6 (00:00) 11.2 8.61 (15:40) 5.28 (15:40) 0 0 0 0 0
28-01-2018 16.8 (14:00) 9.4 (00:00) 13.1 12.5 (01:50) 6.94 (03:00) 0.2 0 0.2 0 0
27-01-2018 12 (22:00) 9 (00:00) 10.5 13.89 (11:50) 8.33 (08:40) 11 3.6 0 4.6 2.8
26-01-2018 15.1 (03:40) 8.4 (00:00) 11.8 10.83 (03:50) 6.67 (09:50) 4.2 0 4 0.2 0
25-01-2018 17.4 (15:00) 2.4 (00:00) 9.9 9.44 (23:20) 5.28 (21:10) 0 0 0 0 0
24-01-2018 17.7 (13:00) 1.7 (00:00) 9.7 5.56 (14:40) 3.61 (14:20) 0 0 0 0 0
23-01-2018 19.2 (13:40) 3.2 (00:00) 11.2 3.61 (13:10) 2.5 (13:30) 0 0 0 0 0
22-01-2018 20.1 (12:00) 7.3 (00:00) 13.7 12.22 (11:00) 7.78 (11:00) 0 0 0 0 0

Gráficas

Temp. máximas Temp. mínimas Temp. medias Precipitaciones Rachas de viento máximas Velocidades máximas media en intervalos de 10 minutos

Datos horarios

Fecha y hora oficial Temperatura (ºC) Velocidad del viento (km/h) Dirección del viento Racha (km/h) Dirección de racha Precipitación (mm) Presión (hPa) Tendencia (hPa) Humedad (%)
2018-02-20 23:00:00 8.5 2 Sudeste 8 Sudeste 0 -- -- 93
2018-02-20 22:00:00 9.9 6 Sudeste 9 Sudeste 0 -- -- 89
2018-02-20 21:00:00 11.7 3 Sudeste 8 Sudeste 0 -- -- 84
2018-02-20 20:00:00 11.5 4 Nordeste 5 Sudeste 0 -- -- 85
2018-02-20 19:00:00 13 4 Sudeste 13 Noroeste 0 -- -- 77
2018-02-20 18:00:00 14.4 11 Oeste 25 Noroeste 0 -- -- 72
2018-02-20 17:00:00 15 14 Noroeste 33 Oeste 0 -- -- 68
2018-02-20 16:00:00 15.9 23 Noroeste 30 Noroeste 0 -- -- 69
2018-02-20 15:00:00 15.9 15 Noroeste 22 Noroeste 0 -- -- 68
2018-02-20 14:00:00 15.7 18 Noroeste 32 Noroeste 0 -- -- 70
2018-02-20 13:00:00 16 24 Noroeste 35 Noroeste 0 -- -- 65
2018-02-20 12:00:00 15.6 21 Noroeste 30 Noroeste 0 -- -- 71
2018-02-20 11:00:00 14.8 18 Oeste 24 Oeste 0 -- -- 85
2018-02-20 10:00:00 12.1 3 Sudoeste 8 Sudoeste 0 -- -- 99
2018-02-20 09:00:00 9.8 0 Calma 3 Oeste 0 -- -- 99
2018-02-20 08:00:00 8.4 3 Sudeste 4 Sudeste 0 -- -- 99
2018-02-20 07:00:00 7.5 0 Calma 5 Norte 0 -- -- 98
2018-02-20 06:00:00 6.7 0 Calma 4 Oeste 0 -- -- 99
2018-02-20 05:00:00 6.4 2 Este 4 Este 0 -- -- 99
2018-02-20 04:00:00 6 3 Nordeste 6 Norte 0 -- -- 98
2018-02-20 03:00:00 4.8 4 Sudeste 5 Norte 0 -- -- 98
2018-02-20 02:00:00 4.5 2 Este 3 Nordeste 0 -- -- 98
2018-02-20 01:00:00 4.1 0 Calma 2 Sudeste 0 -- -- 96
2018-02-20 00:00:00 4.8 0 Calma 5 Nordeste 0 -- -- 95
2018-02-19 23:00:00 7 2 Nordeste 8 Noroeste 0 -- -- 95
2018-02-19 22:00:00 7.1 0 Calma 9 Norte 0 -- -- 93
2018-02-19 21:00:00 9.3 5 Norte 19 Oeste 0 -- -- 91
2018-02-19 20:00:00 13.2 14 Oeste 21 Oeste 0 -- -- 80
2018-02-19 19:00:00 13.1 7 Sudoeste 21 Oeste 0 -- -- 77
2018-02-19 18:00:00 14.4 10 Sudoeste 20 Sur 0 -- -- 71
2018-02-19 17:00:00 13.8 7 Sudoeste 28 Sudoeste 0 -- -- 76
2018-02-19 16:00:00 15.4 15 Sudoeste 30 Oeste 0 -- -- 70
2018-02-19 15:00:00 14.6 18 Sudoeste 29 Oeste 0 -- -- 72
2018-02-19 14:00:00 15.6 12 Sudoeste 23 Sudoeste 0 -- -- 73
2018-02-19 13:00:00 15.2 8 Sudoeste 17 Sudoeste 0 -- -- 69
2018-02-19 12:00:00 14.6 7 Sudoeste 15 Sudoeste 0 -- -- 70
2018-02-19 11:00:00 13.1 3 Oeste 5 Oeste 0 -- -- 78
2018-02-19 10:00:00 8.5 0 Calma 3 Sudeste 0 -- -- 97
2018-02-19 09:00:00 6.8 3 Nordeste 10 Nordeste 0 -- -- 97
2018-02-19 08:00:00 6 2 Sudeste 4 Norte 0 -- -- 97
2018-02-19 07:00:00 5.3 0 Calma 7 Norte 0 -- -- 97
2018-02-19 06:00:00 4.7 0 Calma 4 Noroeste 0 -- -- 98
2018-02-19 05:00:00 4.2 0 Calma 4 Norte 0 -- -- 96
2018-02-19 04:00:00 4.3 0 Calma 5 Norte 0 -- -- 97
2018-02-19 03:00:00 4.4 2 Norte 4 Noroeste 0 -- -- 97
2018-02-19 02:00:00 4.1 0 Calma 6 Norte 0 -- -- 95
2018-02-19 01:00:00 4 0 Calma 3 Norte 0 -- -- 94
2018-02-19 00:00:00 4.6 0 Calma 4 Norte 0 -- -- 92
2018-02-18 23:00:00 6.6 3 Norte 5 Norte 0 -- -- 91
2018-02-18 22:00:00 9.1 3 Nordeste 9 Noroeste 0 -- -- 87
2018-02-18 21:00:00 10.9 7 Noroeste 17 Oeste 0 -- -- 84
2018-02-18 20:00:00 12.2 9 Oeste 15 Oeste 0 -- -- 80
2018-02-18 19:00:00 13 11 Oeste 18 Oeste 0 -- -- 74
2018-02-18 18:00:00 13.5 12 Oeste 19 Oeste 0 -- -- 75
2018-02-18 17:00:00 14.1 13 Oeste 20 Oeste 0 -- -- 73
2018-02-18 16:00:00 14.6 10 Oeste 22 Oeste 0 -- -- 74
2018-02-18 15:00:00 13.6 15 Oeste 28 Oeste 0 -- -- 79
2018-02-18 14:00:00 14.3 14 Oeste 24 Oeste 0 -- -- 79
2018-02-18 13:00:00 14.4 16 Oeste 23 Oeste 0 -- -- 77
2018-02-18 12:00:00 14.7 3 Nordeste 10 Nordeste 0 -- -- 73
2018-02-18 11:00:00 13.5 8 Norte 14 Norte 0 -- -- 79
2018-02-18 10:00:00 12.5 8 Norte 13 Este 0 -- -- 84
2018-02-18 09:00:00 11.5 5 Norte 8 Norte 0 -- -- 88
2018-02-18 08:00:00 10.5 3 Nordeste 8 Nordeste 0 -- -- 88
2018-02-18 07:00:00 10.6 4 Norte 9 Nordeste 0 -- -- 87
2018-02-18 06:00:00 11.8 6 Nordeste 19 Nordeste 0 -- -- 79
2018-02-18 05:00:00 11.8 10 Nordeste 19 Nordeste 0 -- -- 77
2018-02-18 04:00:00 10.9 6 Nordeste 13 Nordeste 0 -- -- 81
2018-02-18 03:00:00 11.9 8 Nordeste 17 Nordeste 0 -- -- 76
2018-02-18 02:00:00 12.2 9 Nordeste 15 Nordeste 0 -- -- 78
2018-02-18 01:00:00 12.4 7 Nordeste 14 Nordeste 0 -- -- 76
2018-02-18 00:00:00 12.7 10 Nordeste 22 Nordeste 0 -- -- 73
2018-02-17 23:00:00 13 14 Nordeste 32 Nordeste 0 -- -- 73
2018-02-17 22:00:00 13.3 15 Nordeste 27 Nordeste 0 -- -- 76
2018-02-17 21:00:00 13.5 16 Nordeste 31 Nordeste 0 -- -- 77
2018-02-17 20:00:00 14.1 17 Nordeste 30 Nordeste 0 -- -- 83
2018-02-17 19:00:00 13.7 9 Nordeste 22 Nordeste 0 -- -- 89
2018-02-17 18:00:00 14.5 15 Nordeste 29 Nordeste 0 -- -- 80
2018-02-17 17:00:00 16.3 14 Nordeste 26 Nordeste 0 -- -- 74
2018-02-17 16:00:00 16.1 10 Sudoeste 22 Oeste 0 -- -- 82
2018-02-17 15:00:00 16.2 15 Sudoeste 25 Oeste 0 -- -- 82
2018-02-17 14:00:00 16.3 19 Oeste 25 Oeste 0 -- -- 78
2018-02-17 13:00:00 16.3 14 Oeste 19 Sudoeste 0 -- -- 80
2018-02-17 12:00:00 16.7 11 Oeste 16 Sudoeste 0 -- -- 78
2018-02-17 11:00:00 14.1 5 Noroeste 8 Norte 0 -- -- 94
2018-02-17 10:00:00 10.7 2 Norte 6 Norte 0 -- -- 99
2018-02-17 09:00:00 8.4 0 Calma 4 Noroeste 0 -- -- 99
2018-02-17 08:00:00 6.3 0 Calma 5 Noroeste 0 -- -- 99
2018-02-17 07:00:00 5.8 0 Calma 4 Noroeste 0 -- -- 98
2018-02-17 06:00:00 5.9 0 Calma 4 Noroeste 0 -- -- 98
2018-02-17 05:00:00 5.9 0 Calma 4 Norte 0 -- -- 99
2018-02-17 04:00:00 5.9 0 Calma 5 Noroeste 0 -- -- 98
2018-02-17 03:00:00 5.9 0 Calma 3 Norte 0 -- -- 98
2018-02-17 02:00:00 6.3 0 Calma -- -- 0 -- -- 97
2018-02-17 01:00:00 6.9 0 Calma -- -- 0 -- -- 97
2018-02-17 00:00:00 7.9 0 Calma 0 Calma 0 -- -- 97
2018-02-16 23:00:00 8.8 0 Calma 4 Norte 0 -- -- 95
2018-02-16 22:00:00 9.4 0 Calma 3 Sudeste 0 -- -- 95
2018-02-16 21:00:00 9.5 0 Calma 4 Sudeste 0 -- -- 94
2018-02-16 20:00:00 11.2 0 Calma 6 Sudeste 0 -- -- 92
2018-02-16 19:00:00 12.8 5 Sudeste 9 Este 0 -- -- 89
2018-02-16 18:00:00 15.8 6 Sudeste 9 Este 0 -- -- 78
2018-02-16 17:00:00 16.3 5 Sudoeste 13 Sudoeste 0 -- -- 74
2018-02-16 16:00:00 17.6 8 Oeste 12 Oeste 0 -- -- 66
2018-02-16 15:00:00 16.5 7 Oeste 13 Oeste 0 -- -- 75
2018-02-16 14:00:00 16.7 8 Oeste 11 Oeste 0 -- -- 76
2018-02-16 13:00:00 15.7 7 Oeste 12 Oeste 0 -- -- 88
2018-02-16 12:00:00 14.7 5 Oeste 9 Oeste 0 -- -- 98
2018-02-16 11:00:00 13.5 4 Noroeste 5 Noroeste 0 -- -- 100
2018-02-16 10:00:00 11.2 2 Noroeste 4 Noroeste 0 -- -- 100
2018-02-16 09:00:00 9 0 Calma 4 Sudeste 0.2 -- -- 100
2018-02-16 08:00:00 7.5 0 Calma 2 Este 0 -- -- 100
2018-02-16 07:00:00 7.3 0 Calma 4 Norte 0 -- -- 100
2018-02-16 06:00:00 7.9 0 Calma 3 Norte 0 -- -- 100
2018-02-16 05:00:00 7.4 2 Nordeste 4 Norte 0 -- -- 100
2018-02-16 04:00:00 6.4 0 Calma 5 Norte 0 -- -- 99
2018-02-16 03:00:00 7.1 0 Calma 2 Norte 0 -- -- 99
2018-02-16 02:00:00 7 0 Calma 3 Sudeste 0 -- -- 98
2018-02-16 01:00:00 6.8 0 Calma 2 Norte 0 -- -- 98
2018-02-16 00:00:00 6.9 0 Calma 4 Norte 0 -- -- 97
2018-02-15 23:00:00 8.1 0 Calma 7 Sudeste 0 -- -- 97
2018-02-15 22:00:00 8.4 4 Sudeste 8 Sur 0 -- -- 96
2018-02-15 21:00:00 8.5 3 Sudeste 4 Sudeste 0 -- -- 93
2018-02-15 20:00:00 10.2 0 Calma 3 Sur 0 -- -- 91
2018-02-15 19:00:00 13.2 3 Sur 11 Oeste 0 -- -- 88
2018-02-15 18:00:00 15.7 7 Sudoeste 22 Sudoeste 0 -- -- 83
2018-02-15 17:00:00 16.4 10 Sudoeste 18 Oeste 0 -- -- 79
2018-02-15 16:00:00 17 12 Oeste 19 Sudoeste 0 -- -- 75
2018-02-15 15:00:00 16.9 9 Sudoeste 22 Sudoeste 0 -- -- 72
2018-02-15 14:00:00 17 12 Oeste 22 Oeste 0 -- -- 74
2018-02-15 13:00:00 16.5 14 Oeste 22 Oeste 0 -- -- 79
2018-02-15 12:00:00 16.5 13 Oeste 22 Oeste 0 -- -- 81
2018-02-15 11:00:00 15.4 11 Oeste 18 Oeste 0 -- -- 93
2018-02-15 10:00:00 11.1 0 Calma 5 Oeste 0 -- -- 99
2018-02-15 09:00:00 8.4 0 Calma 6 Norte 0 -- -- 99
2018-02-15 08:00:00 6.3 0 Calma 6 Sudeste 0 -- -- 98
2018-02-15 07:00:00 7.5 0 Calma 5 Sudeste 0 -- -- 98
2018-02-15 06:00:00 6.4 5 Sur 9 Sur 0 957.1 0 82
2018-02-15 05:00:00 7.8 2 Sudeste 6 Sudeste 0 -- -- 98
2018-02-15 04:00:00 8.3 0 Calma 6 Norte 0 -- -- 98
2018-02-15 03:00:00 8 0 Calma 6 Este 0 -- -- 99
2018-02-15 02:00:00 6.8 0 Calma 4 Sur 0 -- -- 96
2018-02-15 01:00:00 8 2 Sur 5 Oeste 0 -- -- 96
2018-02-15 00:00:00 8.7 2 Sudoeste 6 Sudeste 0 -- -- 96
2018-02-14 23:00:00 8.3 2 Sudeste 5 Norte 0 -- -- 96
2018-02-14 22:00:00 9.3 3 Norte 4 Norte 0 -- -- 94
2018-02-14 21:00:00 9.6 2 Sur 4 Sudeste 0 -- -- 91
2018-02-14 20:00:00 10.7 3 Sudoeste 5 Oeste 0 -- -- 91
2018-02-14 19:00:00 12.1 2 Sur 8 Sudoeste 0 -- -- 83
2018-02-14 18:00:00 14.5 5 Sudoeste 13 Sur 0 -- -- 77
2018-02-14 17:00:00 14.8 6 Sur 15 Sudeste 0 -- -- 77
2018-02-14 16:00:00 15.4 12 Oeste 29 Oeste 0 -- -- 75
2018-02-14 15:00:00 15.8 21 Oeste 27 Sudoeste 0 -- -- 71
2018-02-14 14:00:00 15.8 15 Oeste 27 Oeste 0 -- -- 71
2018-02-14 13:00:00 15.7 13 Oeste 21 Noroeste 0 -- -- 70
2018-02-14 12:00:00 14.8 7 Noroeste 12 Noroeste 0 -- -- 72
2018-02-14 11:00:00 13.1 6 Noroeste 12 Noroeste 0 -- -- 80
2018-02-14 10:00:00 11.4 4 Noroeste 7 Oeste 0 -- -- 85
2018-02-14 09:00:00 11 5 Oeste 12 Noroeste -- -- -- 84
2018-02-14 08:00:00 11.1 10 Oeste 17 Oeste 0 -- -- 84
2018-02-14 07:00:00 11.9 11 Oeste 23 Oeste 0 -- -- 78
2018-02-14 06:00:00 12.9 20 Oeste 38 Oeste 0 -- -- 76
2018-02-14 05:00:00 12.8 23 Oeste 44 Oeste 0 -- -- 75
2018-02-14 04:00:00 12.9 28 Oeste 42 Oeste 0 -- -- 70
2018-02-14 03:00:00 12.9 23 Oeste 45 Oeste 0 -- -- 71
2018-02-14 02:00:00 13.2 23 Oeste 37 Oeste 0 -- -- 72
2018-02-14 01:00:00 13.3 22 Oeste 49 Oeste 0 -- -- 75
2018-02-14 00:00:00 13.3 29 Oeste 47 Oeste 0 -- -- 77
2018-02-13 23:00:00 13.2 33 Oeste 48 Oeste 0 -- -- 71
2018-02-13 22:00:00 13.1 32 Oeste 45 Oeste 0 -- -- 68
2018-02-13 21:00:00 12.9 29 Oeste 62 Oeste 0 -- -- 68
2018-02-13 20:00:00 12.7 28 Oeste 47 Oeste 0 -- -- 65
2018-02-13 19:00:00 12.6 30 Oeste 51 Oeste 0 -- -- 64
2018-02-13 18:00:00 12.5 35 Oeste 51 Sudoeste 0 -- -- 60
2018-02-13 17:00:00 12.2 26 Oeste 40 Oeste 0 -- -- 59
2018-02-13 16:00:00 12.2 23 Oeste 42 Oeste 0 -- -- 60
2018-02-13 15:00:00 12.4 23 Oeste 53 Oeste 0 -- -- 56
2018-02-13 14:00:00 12.3 25 Oeste 39 Oeste 0 -- -- 54
2018-02-13 13:00:00 12 23 Oeste 35 Oeste 0 -- -- 56
2018-02-13 12:00:00 11.1 23 Oeste 45 Oeste 0 -- -- 58
2018-02-13 11:00:00 9.9 17 Oeste 29 Noroeste 0 -- -- 68
2018-02-13 10:00:00 5.7 3 Norte 7 Noroeste 0 -- -- 94
2018-02-13 09:00:00 3.3 2 Sudeste 3 Sudeste 0 -- -- 99
2018-02-13 08:00:00 0 2 Este 4 Nordeste 0 -- -- 98
2018-02-13 07:00:00 0.5 0 Calma 6 Oeste 0 -- -- 96
2018-02-13 06:00:00 0.7 0 Calma 4 Oeste 0 -- -- 96
2018-02-13 05:00:00 2.1 2 Sudoeste 9 Oeste 0 -- -- 94
2018-02-13 04:00:00 4.2 3 Noroeste 13 Noroeste 0 -- -- 94
2018-02-13 03:00:00 5.1 3 Sudeste 18 Noroeste 0.2 -- -- 93
2018-02-13 02:00:00 5.5 11 Norte 22 Norte 0 -- -- 93
2018-02-13 01:00:00 6 12 Norte 24 Norte 0 -- -- 95
2018-02-13 00:00:00 6.4 14 Noroeste 22 Norte 0.2 -- -- 96
2018-02-12 23:00:00 6.5 12 Oeste 15 Oeste 0 -- -- 97
2018-02-12 22:00:00 6.1 4 Nordeste 10 Norte 0 -- -- 97
2018-02-12 21:00:00 6 6 Nordeste 10 Nordeste 0.4 -- -- 97
2018-02-12 20:00:00 6.4 5 Norte 14 Nordeste 0.4 -- -- 96
2018-02-12 19:00:00 6.5 10 Nordeste 17 Nordeste 2.2 -- -- 97
2018-02-12 18:00:00 6.9 14 Nordeste 25 Norte 2.4 -- -- 97
2018-02-12 17:00:00 7.7 18 Norte 32 Nordeste 1 -- -- 96
2018-02-12 16:00:00 8.9 11 Nordeste 22 Nordeste 0.8 -- -- 95
2018-02-12 15:00:00 9.3 15 Nordeste 30 Nordeste 0 -- -- 93
2018-02-12 14:00:00 10.5 10 Nordeste 17 Nordeste 0.4 -- -- 94
2018-02-12 13:00:00 10.3 9 Norte 15 Norte 0.8 -- -- 96
2018-02-12 12:00:00 10.1 14 Nordeste 28 Norte 1.6 -- -- 97
2018-02-12 11:00:00 10.6 5 Nordeste 8 Nordeste 1.8 -- -- 97
2018-02-12 10:00:00 10.4 3 Norte 12 Nordeste 0.4 -- -- 96
2018-02-12 09:00:00 10.6 8 Nordeste 12 Nordeste 0 -- -- 96
2018-02-12 08:00:00 8.1 4 Norte 6 Norte 0 -- -- 96
2018-02-12 07:00:00 8 3 Este 6 Norte 0 -- -- 96
2018-02-12 06:00:00 8.1 0 Calma 13 Norte 0 -- -- 96
2018-02-12 05:00:00 8.3 4 Norte 8 Norte 0 -- -- 94
2018-02-12 04:00:00 9.4 4 Sudeste 5 Sur 0 -- -- 94
2018-02-12 03:00:00 11.1 0 Calma 16 Nordeste 0 -- -- 91
2018-02-12 02:00:00 12.8 10 Oeste 19 Oeste 0 -- -- 90
2018-02-12 01:00:00 13.1 13 Oeste 19 Oeste 0 -- -- 85
2018-02-12 00:00:00 13.2 14 Oeste 30 Sudoeste 0 -- -- 83
2018-02-11 23:00:00 13.3 16 Oeste 31 Sudoeste 0 -- -- 79
2018-02-11 22:00:00 13.1 19 Oeste 28 Oeste 0 -- -- 77
2018-02-11 21:00:00 12.8 17 Oeste 29 Oeste 0 -- -- 75
2018-02-11 20:00:00 12.6 18 Oeste 31 Oeste 0 -- -- 75
2018-02-11 19:00:00 12.5 20 Oeste 33 Sudoeste 0 -- -- 72
2018-02-11 18:00:00 12.8 21 Oeste 35 Oeste 0 -- -- 68
2018-02-11 17:00:00 13.7 21 Oeste 36 Oeste 0 -- -- 64
2018-02-11 16:00:00 13.9 24 Oeste 37 Oeste 0 -- -- 59
2018-02-11 15:00:00 13.9 26 Oeste 43 Oeste 0 -- -- 64
2018-02-11 14:00:00 13.7 29 Oeste 41 Oeste 0 -- -- 65
2018-02-11 13:00:00 13.4 25 Oeste 39 Oeste 0 -- -- 63
2018-02-11 12:00:00 12.9 25 Oeste 37 Oeste 0 -- -- 62
2018-02-11 11:00:00 11.1 23 Oeste 31 Oeste 0 -- -- 70
2018-02-11 10:00:00 3.8 0 Calma 2 Este 0 -- -- 95
2018-02-11 09:00:00 0.4 0 Calma 6 Noroeste 0 -- -- 97
2018-02-11 08:00:00 -2.7 0 Calma 3 Sudeste 0 -- -- 96
2018-02-11 07:00:00 -2.8 0 Calma 3 Sudeste 0 -- -- 95
2018-02-11 06:00:00 -2.7 2 Sudeste 3 Sudeste 0 -- -- 95
2018-02-11 05:00:00 -2.3 0 Calma 3 Sudeste 0 -- -- 94
2018-02-11 04:00:00 -1.7 0 Calma 4 Norte 0 -- -- 93
2018-02-11 03:00:00 -1.4 0 Calma 3 Este 0 -- -- 92
2018-02-11 02:00:00 -1 2 Sudeste 5 Sudeste 0 -- -- 90
2018-02-11 01:00:00 -0.2 0 Calma 4 Este 0 -- -- 86
2018-02-11 00:00:00 2.2 2 Este 5 Noroeste 0 -- -- 78
2018-02-10 23:00:00 5.3 3 Noroeste 9 Noroeste 0 -- -- 70
2018-02-10 22:00:00 5.7 6 Norte 10 Noroeste 0 -- -- 72
2018-02-10 21:00:00 4 0 Calma 4 Noroeste 0 -- -- 82
2018-02-10 20:00:00 5.2 0 Calma 13 Noroeste 0 -- -- 75
2018-02-10 19:00:00 6.2 12 Noroeste 22 Norte 0 -- -- 69
2018-02-10 18:00:00 7.4 18 Norte 42 Norte 0 -- -- 61
2018-02-10 17:00:00 8.4 24 Norte 37 Norte 0.2 -- -- 60
2018-02-10 16:00:00 8 23 Norte 41 Norte 0 -- -- 64
2018-02-10 15:00:00 9.3 27 Norte 46 Nordeste 0 -- -- 55
2018-02-10 14:00:00 8.9 12 Noroeste 23 Norte 0 -- -- 65
2018-02-10 13:00:00 6.3 12 Noroeste 27 Oeste 0 -- -- 82
2018-02-10 12:00:00 5.7 8 Noroeste 33 Nordeste 0 -- -- 83
2018-02-10 11:00:00 3.6 6 Norte 38 Norte 0.8 -- -- 97
2018-02-10 10:00:00 4.2 5 Norte 29 Norte 0.2 -- -- 97
2018-02-10 09:00:00 3.7 15 Nordeste 32 Nordeste 0.4 -- -- 98
2018-02-10 08:00:00 2.8 17 Nordeste 45 Norte 2.6 -- -- 98
2018-02-10 07:00:00 5 22 Nordeste 38 Norte 0.2 -- -- 97
2018-02-10 06:00:00 2.5 4 Norte 8 Norte 0 -- -- 98
2018-02-10 05:00:00 1.9 0 Calma 3 Noroeste 0 -- -- 98
2018-02-10 04:00:00 1.2 0 Calma 2 Nordeste 0.2 -- -- 98
2018-02-10 03:00:00 0.4 0 Calma 2 Sudeste 0 -- -- 98
2018-02-10 02:00:00 -0.2 0 Calma 2 Sudeste 0 -- -- 98
2018-02-10 01:00:00 -0.4 0 Calma 2 Norte 0 -- -- 97
2018-02-10 00:00:00 -0.1 0 Calma 2 Norte 0 -- -- 97
2018-02-09 23:00:00 0.3 0 Calma 3 Sudeste 0 -- -- 96
2018-02-09 22:00:00 1.2 0 Calma 4 Sudeste 0 -- -- 95
2018-02-09 21:00:00 1.9 2 Este 3 Este 0 -- -- 94
2018-02-09 20:00:00 3.3 0 Calma 3 Sudeste 0 -- -- 93
2018-02-09 19:00:00 4.8 0 Calma 6 Norte 0 -- -- 89
2018-02-09 18:00:00 7.8 6 Norte 19 Norte 0 -- -- 85
2018-02-09 17:00:00 9.4 11 Norte 18 Norte 0 -- -- 85
2018-02-09 16:00:00 8.2 5 Noroeste 9 Nordeste 0 -- -- 96
2018-02-09 15:00:00 7.6 8 Nordeste 24 Norte 2 -- -- 97
2018-02-09 14:00:00 8.1 15 Norte 22 Norte 0.6 -- -- 94
2018-02-09 13:00:00 8.5 10 Norte 19 Norte 0 -- -- 90
2018-02-09 12:00:00 8.1 15 Norte 21 Norte 0 -- -- 90
2018-02-09 11:00:00 6.1 5 Norte 12 Norte 0 -- -- 95
2018-02-09 10:00:00 4.6 8 Norte 11 Norte 0 -- -- 97
2018-02-09 09:00:00 1.9 0 Calma 5 Sudeste 0 -- -- 99
2018-02-09 08:00:00 -0.5 0 Calma 17 Oeste 0 -- -- 96
2018-02-09 07:00:00 -0.4 2 Norte 8 Norte 0 -- -- 98
2018-02-09 06:00:00 -1.6 0 Calma 2 Norte 0 -- -- 97
2018-02-09 05:00:00 -0.8 0 Calma 4 Nordeste 0 -- -- 96
2018-02-09 04:00:00 -0.1 0 Calma 3 Norte 0 -- -- 96
2018-02-09 03:00:00 2 3 Norte 7 Nordeste 0 -- -- 95
2018-02-09 02:00:00 -0.8 0 Calma 4 Norte 0 -- -- 95
2018-02-09 01:00:00 -0.8 0 Calma 4 Este 0 -- -- 94
2018-02-09 00:00:00 0.3 0 Calma 5 Norte 0 -- -- 93
2018-02-08 23:00:00 0.6 2 Este 4 Nordeste 0 -- -- 91
2018-02-08 22:00:00 2.1 0 Calma 8 Oeste 0 -- -- 89
2018-02-08 21:00:00 1.8 0 Calma 4 Este 0 -- -- 89
2018-02-08 20:00:00 3.6 0 Calma 5 Norte 0 -- -- 83
2018-02-08 19:00:00 6.8 0 Calma 13 Noroeste 0 -- -- 73
2018-02-08 18:00:00 9.4 12 Oeste 24 Oeste 0 -- -- 64
2018-02-08 17:00:00 10.9 17 Oeste 27 Oeste 0 -- -- 59
2018-02-08 16:00:00 11.2 19 Oeste 28 Oeste 0 -- -- 57
2018-02-08 15:00:00 12 13 Sudoeste 22 Sudoeste 0 -- -- 58
2018-02-08 14:00:00 11.9 8 Sudoeste 16 Sudoeste 0 -- -- 64
2018-02-08 13:00:00 11.1 6 Sudoeste 12 Sudoeste 0 -- -- 64
2018-02-08 12:00:00 9.9 6 Oeste 24 Oeste 0 -- -- 74
2018-02-08 11:00:00 7.8 0 Calma 5 Norte 0 -- -- 92
2018-02-08 10:00:00 5.8 0 Calma 5 Norte 0 -- -- 95
2018-02-08 09:00:00 4.3 0 Calma 4 Norte 0 -- -- 97
2018-02-08 08:00:00 1.6 0 Calma 4 Sur 0 -- -- 95
2018-02-08 07:00:00 3.1 0 Calma 2 Sur 0 -- -- 94
2018-02-08 06:00:00 4.7 0 Calma 5 Noroeste 0 -- -- 95
2018-02-08 05:00:00 4.6 0 Calma 3 Norte 0 -- -- 93
2018-02-08 04:00:00 6.2 0 Calma 3 Norte 0 -- -- 93
2018-02-08 03:00:00 6.7 0 Calma 3 Norte 0 -- -- 92
2018-02-08 02:00:00 7.1 3 Norte 5 Norte 0 -- -- 91
2018-02-08 01:00:00 7.2 4 Norte 5 Norte 0 -- -- 91
2018-02-08 00:00:00 7.3 0 Calma 4 Noroeste 0 -- -- 89
2018-02-07 23:00:00 8 3 Norte 9 Norte 0 -- -- 81
2018-02-07 22:00:00 7.9 4 Norte 7 Noroeste 0 -- -- 87
2018-02-07 21:00:00 8 0 Calma 4 Norte 0 -- -- 85
2018-02-07 20:00:00 8.5 3 Norte 9 Noroeste 0 -- -- 80
2018-02-07 19:00:00 9 6 Noroeste 13 Noroeste 0 -- -- 77
2018-02-07 18:00:00 9.8 7 Sur 11 Sur 0 -- -- 78
2018-02-07 17:00:00 10.5 7 Sur 12 Sur 0 -- -- 78
2018-02-07 16:00:00 10.2 7 Sur 10 Sur 0 -- -- 80
2018-02-07 15:00:00 10 5 Sudoeste 12 Sudoeste 0 -- -- 80
2018-02-07 14:00:00 10.7 2 Noroeste 10 Norte 0 -- -- 73
2018-02-07 13:00:00 10.2 9 Norte 14 Nordeste 0 -- -- 76
2018-02-07 12:00:00 9.9 6 Nordeste 10 Nordeste 0 -- -- 77
2018-02-07 11:00:00 9.6 2 Noroeste 4 Oeste 0 -- -- 80
2018-02-07 10:00:00 8.1 2 Noroeste 6 Norte 0 -- -- 88
2018-02-07 09:00:00 7.2 0 Calma 2 Norte 0 -- -- 90
2018-02-07 08:00:00 7.3 2 Norte 12 Norte 0 -- -- 86
2018-02-07 07:00:00 7.6 10 Norte 22 Norte 0 -- -- 83
2018-02-07 06:00:00 7.1 8 Norte 16 Norte 0 -- -- 88
2018-02-07 05:00:00 6.7 4 Norte 16 Norte 0 -- -- 86
2018-02-07 04:00:00 8 13 Norte 27 Nordeste 0 -- -- 83
2018-02-07 03:00:00 7.9 8 Norte 22 Nordeste 0 -- -- 89
2018-02-07 02:00:00 7.6 5 Norte 17 Norte 0 -- -- 92
2018-02-07 01:00:00 7.7 9 Nordeste 16 Nordeste 0.2 -- -- 96
2018-02-07 00:00:00 7.1 7 Nordeste 10 Nordeste 0 -- -- 98
2018-02-06 23:00:00 6.3 0 Calma 6 Nordeste 0 -- -- 98
2018-02-06 22:00:00 6.7 6 Nordeste 13 Nordeste 0 -- -- 97
2018-02-06 21:00:00 6.6 11 Nordeste 22 Nordeste 1.6 -- -- 97
2018-02-06 20:00:00 6.8 14 Nordeste 23 Nordeste 0.4 -- -- 96
2018-02-06 19:00:00 7.3 14 Nordeste 22 Nordeste 0.6 -- -- 96
2018-02-06 18:00:00 8 12 Nordeste 17 Nordeste 1.4 -- -- 96
2018-02-06 17:00:00 8.5 9 Nordeste 15 Nordeste 0.8 -- -- 94
2018-02-06 16:00:00 9.6 5 Este 23 Sur 0.2 -- -- 88
2018-02-06 15:00:00 10.6 12 Sur 25 Sudoeste 0 -- -- 79
2018-02-06 14:00:00 10.2 6 Sudoeste 23 Sudoeste 0.8 -- -- 85
2018-02-06 13:00:00 10.9 8 Sudoeste 22 Sudoeste 0 -- -- 80
2018-02-06 12:00:00 10.3 5 Sudoeste 14 Sudoeste 0.2 -- -- 91
2018-02-06 11:00:00 8.9 7 Sudoeste 33 Sudoeste 1 -- -- 95
2018-02-06 10:00:00 7.5 4 Norte 13 Nordeste 0 -- -- 97
2018-02-06 09:00:00 6.2 7 Norte 12 Norte 0 -- -- 97
2018-02-06 08:00:00 5.7 10 Norte 14 Norte 0 -- -- 96
2018-02-06 07:00:00 6.6 4 Norte 10 Norte 0 -- -- 95
2018-02-06 06:00:00 7.2 8 Norte 15 Nordeste 0 -- -- 94
2018-02-06 05:00:00 7.9 3 Sudeste 11 Sudeste 0.6 -- -- 94
2018-02-06 04:00:00 5.2 0 Calma 4 Nordeste 0 -- -- 92
2018-02-06 03:00:00 6.1 0 Calma 6 Noroeste 0 -- -- 88
2018-02-06 02:00:00 8.6 7 Nordeste 15 Sudoeste 0 -- -- 84
2018-02-06 01:00:00 10 14 Sudoeste 28 Sudoeste 0 -- -- 84
2018-02-06 00:00:00 8.3 0 Calma 4 Sudeste 0 -- -- 82
2018-02-05 23:00:00 11.1 3 Sur 15 Sudoeste 0 -- -- 73
2018-02-05 22:00:00 12.5 9 Sudoeste 20 Sur 0 -- -- 68
2018-02-05 21:00:00 10.8 8 Sur 16 Sur 0 -- -- 80
2018-02-05 20:00:00 10.2 2 Este 13 Norte 0 -- -- 85
2018-02-05 19:00:00 11.2 7 Nordeste 18 Sudoeste 0 -- -- 78
2018-02-05 18:00:00 12.9 6 Sudoeste 24 Sur 0 -- -- 66
2018-02-05 17:00:00 13.3 13 Sur 29 Sur 0 -- -- 63
2018-02-05 16:00:00 14.1 15 Sur 32 Sur 0 -- -- 60
2018-02-05 15:00:00 15.2 13 Sur 28 Sur 0 -- -- 60
2018-02-05 14:00:00 15.2 19 Sur 29 Sur 0 -- -- 55
2018-02-05 13:00:00 14.9 17 Sur 36 Sur 0 -- -- 63
2018-02-05 12:00:00 15 20 Sur 34 Sur 0 -- -- 63
2018-02-05 11:00:00 15 20 Sur 35 Sur 0 -- -- 61
2018-02-05 10:00:00 13.7 13 Sur 25 Sudeste 0 -- -- 67
2018-02-05 09:00:00 11.8 9 Sudeste 16 Sudeste 0 -- -- 73
2018-02-05 08:00:00 11.2 10 Sudeste 16 Sudeste 0 -- -- 72
2018-02-05 07:00:00 11.4 11 Sudeste 23 Sudeste 0 -- -- 70
2018-02-05 06:00:00 12.1 18 Sudeste 29 Sudeste 0 -- -- 65
2018-02-05 05:00:00 11.8 19 Sudeste 32 Sur 0 -- -- 66
2018-02-05 04:00:00 11.9 17 Sudeste 30 Sur 0 -- -- 68
2018-02-05 03:00:00 11.5 16 Sudeste 33 Sudeste 0 -- -- 71
2018-02-05 02:00:00 11.2 17 Sudeste 27 Sudeste 0 -- -- 73
2018-02-05 01:00:00 11 15 Sudeste 24 Sudeste 0 -- -- 73
2018-02-05 00:00:00 9.7 10 Sudeste 21 Sur 0 -- -- 74
2018-02-04 23:00:00 10.7 13 Sudeste 25 Sur 0 -- -- 71
2018-02-04 22:00:00 11.3 14 Sur 24 Sudeste 0.2 -- -- 70
2018-02-04 21:00:00 11 12 Sur 20 Sur 0 -- -- 75
2018-02-04 20:00:00 11 12 Sur 20 Sur 0 -- -- 77
2018-02-04 19:00:00 11.3 11 Sur 23 Sur 0 -- -- 79
2018-02-04 18:00:00 11.8 12 Sur 24 Sur 0 -- -- 81
2018-02-04 17:00:00 11.3 5 Sudeste 8 Sudeste 0 -- -- 92
2018-02-04 16:00:00 10.6 8 Sudeste 24 Sudoeste 1.6 -- -- 90
2018-02-04 15:00:00 11.4 14 Sur 38 Sudoeste 1.6 -- -- 77
2018-02-04 14:00:00 15.3 13 Sudoeste 25 Sudoeste 0 -- -- 59
2018-02-04 13:00:00 15.4 17 Sudoeste 30 Sudoeste 0 -- -- 51
2018-02-04 12:00:00 15 14 Sudoeste 27 Sudoeste 0 -- -- 57
2018-02-04 11:00:00 14 14 Sudoeste 23 Sudoeste 0 -- -- 60
2018-02-04 10:00:00 10.3 5 Sudoeste 9 Sudoeste 0 -- -- 81
2018-02-04 09:00:00 8.6 2 Norte 9 Oeste 0 -- -- 79
2018-02-04 08:00:00 10.5 5 Oeste 21 Oeste 0 -- -- 73
2018-02-04 07:00:00 12.2 9 Sudoeste 26 Sudoeste 0 -- -- 67
2018-02-04 06:00:00 12.4 17 Oeste 27 Sudoeste 0 -- -- 70
2018-02-04 05:00:00 12.3 14 Sudoeste 32 Oeste 0 -- -- 73
2018-02-04 04:00:00 12.2 15 Oeste 28 Oeste 0 -- -- 71
2018-02-04 03:00:00 12.6 21 Oeste 33 Oeste 0 -- -- 64
2018-02-04 02:00:00 12.7 21 Oeste 41 Oeste 0 -- -- 65
2018-02-04 01:00:00 12.7 21 Oeste 37 Oeste 0 -- -- 65
2018-02-04 00:00:00 12.4 23 Sudoeste 41 Sudoeste 0 -- -- 63
2018-02-03 23:00:00 12.1 23 Oeste 37 Sudoeste 0 -- -- 61
2018-02-03 22:00:00 10.8 19 Oeste 27 Oeste 0 -- -- 64
2018-02-03 21:00:00 6.1 4 Noroeste 10 Oeste 0 -- -- 76
2018-02-03 20:00:00 9.6 8 Noroeste 31 Oeste 0 -- -- 67
2018-02-03 19:00:00 11 21 Oeste 35 Oeste 0 -- -- 65
2018-02-03 18:00:00 11.1 19 Oeste 33 Oeste 0 -- -- 63
2018-02-03 17:00:00 11.3 18 Noroeste 28 Noroeste 0 -- -- 60
2018-02-03 16:00:00 12 20 Noroeste 38 Noroeste 0 -- -- 53
2018-02-03 15:00:00 11.7 27 Noroeste 40 Noroeste 0 -- -- 52
2018-02-03 14:00:00 11.3 26 Noroeste 40 Noroeste 0 -- -- 54
2018-02-03 13:00:00 11.3 18 Noroeste 34 Noroeste 0.2 -- -- 57
2018-02-03 12:00:00 10.9 18 Noroeste 32 Noroeste 0 -- -- 58
2018-02-03 11:00:00 10.1 17 Noroeste 24 Oeste 0 -- -- 64
2018-02-03 10:00:00 6.5 0 Calma 3 Noroeste 0 -- -- 97
2018-02-03 09:00:00 1.1 0 Calma 7 Sudeste 0 -- -- 98
2018-02-03 08:00:00 -1.2 0 Calma 3 Sudoeste 0 -- -- 97
2018-02-03 07:00:00 -0.8 0 Calma 5 Sur 0 -- -- 96
2018-02-03 06:00:00 -0.8 0 Calma 2 Este 0 -- -- 95
2018-02-03 05:00:00 -0.3 0 Calma 2 Noroeste 0 -- -- 95
2018-02-03 04:00:00 0.4 0 Calma 4 Norte 0 -- -- 93
2018-02-03 03:00:00 1.4 0 Calma 4 Nordeste 0 -- -- 92
2018-02-03 02:00:00 4 0 Calma 20 Nordeste 0 -- -- 89
2018-02-03 01:00:00 4.1 0 Calma 11 Oeste 0 -- -- 90
2018-02-03 00:00:00 5.1 2 Sudoeste 17 Este 0 -- -- 82
2018-02-02 23:00:00 3.9 3 Nordeste 9 Nordeste 0 -- -- 85
2018-02-02 22:00:00 5.8 4 Nordeste 13 Nordeste 0 -- -- 83
2018-02-02 21:00:00 5 0 Calma 7 Noroeste 0 -- -- 88
2018-02-02 20:00:00 6.4 0 Calma 15 Noroeste 0 -- -- 82
2018-02-02 19:00:00 7.1 7 Noroeste 26 Norte 0 -- -- 80
2018-02-02 18:00:00 8.2 18 Norte 37 Norte 0 -- -- 74
2018-02-02 17:00:00 8 12 Norte 35 Nordeste 0 -- -- 81
2018-02-02 16:00:00 7.3 14 Nordeste 36 Norte 0 -- -- 86
2018-02-02 15:00:00 6.7 26 Nordeste 52 Norte 0.4 -- -- 92
2018-02-02 14:00:00 6.1 27 Norte 57 Norte 1.4 -- -- 95
2018-02-02 13:00:00 6.9 28 Nordeste 46 Nordeste 0.4 -- -- 94
2018-02-02 12:00:00 6.7 28 Nordeste 57 Nordeste 2.2 -- -- 97
2018-02-02 11:00:00 7 21 Nordeste 41 Nordeste 1.2 -- -- 96
2018-02-02 10:00:00 7.1 26 Nordeste 41 Nordeste 1.8 -- -- 97
2018-02-02 09:00:00 7.8 18 Nordeste 34 Nordeste 1.8 -- -- 98
2018-02-02 08:00:00 7.9 15 Nordeste 28 Norte 1.6 -- -- 98
2018-02-02 07:00:00 8 14 Nordeste 26 Norte 2 -- -- 98
2018-02-02 06:00:00 8 12 Nordeste 21 Nordeste 1.8 -- -- 98
2018-02-02 05:00:00 8 11 Nordeste 24 Nordeste 2.6 -- -- 98
2018-02-02 04:00:00 8.3 17 Nordeste 25 Norte 1.6 -- -- 98
2018-02-02 03:00:00 8.5 14 Norte 24 Nordeste 1 -- -- 97
2018-02-02 02:00:00 8.8 14 Nordeste 30 Nordeste 0.2 -- -- 96
2018-02-02 01:00:00 9.5 13 Norte 27 Nordeste 0.4 -- -- 96
2018-02-02 00:00:00 9.8 6 Norte 16 Nordeste 0 -- -- 95
2018-02-01 23:00:00 9.8 10 Nordeste 15 Nordeste 0 -- -- 95
2018-02-01 22:00:00 10 4 Nordeste 21 Norte 0 -- -- 93
2018-02-01 21:00:00 10.4 10 Nordeste 16 Nordeste 0 -- -- 94
2018-02-01 20:00:00 10.2 3 Nordeste 17 Noroeste 0 -- -- 92
2018-02-01 19:00:00 12.3 13 Noroeste 22 Noroeste 0 -- -- 89
2018-02-01 18:00:00 13.5 24 Noroeste 55 Oeste 0 -- -- 84
2018-02-01 17:00:00 14.6 13 Sudoeste 26 Sudoeste 0 -- -- 83
2018-02-01 16:00:00 14.9 10 Sudoeste 15 Sudoeste 0 -- -- 82
2018-02-01 15:00:00 15.1 9 Oeste 22 Oeste 0 -- -- 79
2018-02-01 14:00:00 15 13 Oeste 21 Sudoeste 0 -- -- 81
2018-02-01 13:00:00 14.5 9 Sudoeste 21 Sudoeste 0 -- -- 86
2018-02-01 12:00:00 14.3 10 Sudoeste 21 Sudoeste 0 -- -- 88
2018-02-01 11:00:00 11.7 0 Calma 7 Norte 0 -- -- 97
2018-02-01 10:00:00 8.4 3 Noroeste 7 Norte 0 -- -- 98
2018-02-01 09:00:00 6 3 Norte 4 Nordeste 0 -- -- 99
2018-02-01 08:00:00 5.2 0 Calma 6 Norte 0 -- -- 98
2018-02-01 07:00:00 5 0 Calma 4 Sudeste 0 -- -- 98
2018-02-01 06:00:00 4.2 0 Calma 8 Norte 0 -- -- 98
2018-02-01 05:00:00 3.6 0 Calma 4 Norte 0 -- -- 98
2018-02-01 04:00:00 2.2 0 Calma 4 Norte 0 -- -- 97
2018-02-01 03:00:00 2.4 0 Calma 3 Norte 0 -- -- 97
2018-02-01 02:00:00 2.8 0 Calma 3 Noroeste 0 -- -- 96
2018-02-01 01:00:00 5.1 3 Norte 7 Noroeste 0 -- -- 98
2018-02-01 00:00:00 4.8 0 Calma 4 Noroeste 0 -- -- 98
2018-01-31 23:00:00 4.6 0 Calma 5 Norte 0 -- -- 94
2018-01-31 22:00:00 4.8 0 Calma 4 Norte 0 -- -- 94
2018-01-31 21:00:00 6.5 3 Norte 4 Norte 0 -- -- 94
2018-01-31 20:00:00 6.8 2 Sudeste 6 Sudeste 0 -- -- 89
2018-01-31 19:00:00 8.8 5 Sudeste 9 Sudeste 0 -- -- 84
2018-01-31 18:00:00 12.4 7 Sudeste 15 Sudeste 0 -- -- 74
2018-01-31 17:00:00 14.9 10 Sudeste 18 Sudeste 0 -- -- 65
2018-01-31 16:00:00 16.1 11 Sudeste 18 Sudeste 0 -- -- 60
2018-01-31 15:00:00 16.1 12 Sudeste 21 Sudeste 0 -- -- 61
2018-01-31 14:00:00 16.4 10 Sudeste 17 Este 0 -- -- 58
2018-01-31 13:00:00 16.3 8 Sudeste 22 Sudeste 0 -- -- 58
2018-01-31 12:00:00 15.2 4 Norte 9 Sudeste 0 -- -- 71
2018-01-31 11:00:00 12.9 3 Norte 8 Nordeste 0 -- -- 96
2018-01-31 10:00:00 8.8 0 Calma 5 Norte 0 -- -- 99
2018-01-31 09:00:00 3.9 0 Calma 4 Norte 0 -- -- 100
2018-01-31 08:00:00 1.5 0 Calma 3 Sudeste 0 -- -- 98
2018-01-31 07:00:00 1.5 0 Calma 2 Sudeste 0 -- -- 98
2018-01-31 06:00:00 2.5 2 Noroeste 6 Norte 0 -- -- 97
2018-01-31 05:00:00 1.8 0 Calma 3 Nordeste 0 -- -- 98
2018-01-31 04:00:00 2.1 0 Calma 4 Noroeste 0 -- -- 97
2018-01-31 03:00:00 2.5 0 Calma 4 Sudeste 0 -- -- 97
2018-01-31 02:00:00 3 0 Calma 3 Norte 0 -- -- 97
2018-01-31 01:00:00 3.8 0 Calma 3 Nordeste 0 -- -- 96
2018-01-31 00:00:00 5.2 2 Norte 5 Nordeste 0 -- -- 95
2018-01-30 23:00:00 5.7 0 Calma 2 Noroeste 0 -- -- 95
2018-01-30 22:00:00 5.5 0 Calma 2 Norte 0 -- -- 94
2018-01-30 21:00:00 5.9 0 Calma 4 Nordeste 0 -- -- 93
2018-01-30 20:00:00 7.3 0 Calma 6 Sudeste 0 -- -- 91
2018-01-30 19:00:00 10 0 Calma 7 Sudeste 0 -- -- 86
2018-01-30 18:00:00 13.2 7 Sudeste 17 Sudeste 0 -- -- 81
2018-01-30 17:00:00 15 13 Sudeste 18 Sudeste 0 -- -- 76
2018-01-30 16:00:00 16.2 10 Este 17 Este 0 -- -- 71
2018-01-30 15:00:00 16.2 10 Este 18 Este 0 -- -- 69
2018-01-30 14:00:00 16.8 8 Sudeste 16 Sudeste 0 -- -- 64
2018-01-30 13:00:00 16.5 9 Sudeste 15 Sudeste 0 -- -- 63
2018-01-30 12:00:00 15.4 4 Sur 8 Sur 0 -- -- 80
2018-01-30 11:00:00 12.5 4 Norte 6 Norte 0 -- -- 95
2018-01-30 10:00:00 7.9 0 Calma 2 Norte 0 -- -- 99
2018-01-30 09:00:00 3.7 2 Norte 3 Norte 0 -- -- 99
2018-01-30 08:00:00 1.2 0 Calma 3 Norte 0 -- -- 98
2018-01-30 07:00:00 1.3 0 Calma 2 Norte 0 -- -- 98
2018-01-30 06:00:00 1.6 0 Calma 2 Norte 0 -- -- 98
2018-01-30 05:00:00 2.1 0 Calma 3 Norte 0 -- -- 98
2018-01-30 04:00:00 2.4 2 Noroeste 3 Norte 0 -- -- 98
2018-01-30 03:00:00 2.8 0 Calma 2 Norte 0 -- -- 97
2018-01-30 02:00:00 3.4 0 Calma 4 Norte 0 -- -- 96
2018-01-30 01:00:00 3.9 2 Norte 3 Norte 0 -- -- 96
2018-01-30 00:00:00 4.6 0 Calma 4 Norte 0 -- -- 96
2018-01-29 23:00:00 5.1 0 Calma -- -- 0 -- -- 95
2018-01-29 22:00:00 6.9 0 Calma 2 Norte 0 -- -- 94
2018-01-29 21:00:00 7.9 2 Noroeste 5 Nordeste 0 -- -- 93
2018-01-29 20:00:00 8.4 0 Calma 4 Norte 0 -- -- 91
2018-01-29 19:00:00 10.7 3 Sudeste 10 Sudeste 0 -- -- 89
2018-01-29 18:00:00 13 11 Sudeste 22 Sudeste 0 -- -- 84
2018-01-29 17:00:00 14.7 17 Sudeste 24 Sudeste 0 -- -- 79
2018-01-29 16:00:00 15.2 18 Sudeste 31 Sudeste 0 -- -- 78
2018-01-29 15:00:00 17.6 10 Sudeste 21 Sudeste 0 -- -- 62
2018-01-29 14:00:00 17.4 9 Sudeste 19 Sudeste 0 -- -- 67
2018-01-29 13:00:00 16.8 10 Este 21 Sudeste 0 -- -- 72
2018-01-29 12:00:00 14.9 9 Norte 13 Norte 0 -- -- 84
2018-01-29 11:00:00 13 9 Norte 15 Norte 0 -- -- 92
2018-01-29 10:00:00 10.4 8 Norte 11 Norte 0 -- -- 98
2018-01-29 09:00:00 8.2 5 Norte 15 Nordeste 0 -- -- 98
2018-01-29 08:00:00 8.9 10 Nordeste 17 Nordeste 0 -- -- 99
2018-01-29 07:00:00 8.4 9 Nordeste 13 Nordeste 0 -- -- 99
2018-01-29 06:00:00 7.9 8 Nordeste 13 Nordeste 0 -- -- 99
2018-01-29 05:00:00 7.3 5 Norte 13 Nordeste 0 -- -- 98
2018-01-29 04:00:00 8.5 10 Nordeste 17 Nordeste 0 -- -- 98
2018-01-29 03:00:00 8.8 8 Nordeste 17 Nordeste 0 -- -- 98
2018-01-29 02:00:00 9.1 10 Nordeste 19 Nordeste 0 -- -- 98
2018-01-29 01:00:00 9.6 10 Nordeste 15 Nordeste 0 -- -- 98
2018-01-29 00:00:00 9.7 8 Nordeste 12 Nordeste 0 -- -- 98
2018-01-28 23:00:00 10 7 Nordeste 11 Nordeste 0 -- -- 97
2018-01-28 22:00:00 9.9 6 Nordeste 10 Nordeste 0 -- -- 96
2018-01-28 21:00:00 10.5 6 Nordeste 10 Norte 0 -- -- 95
2018-01-28 20:00:00 11.9 3 Nordeste 14 Nordeste 0 -- -- 90
2018-01-28 19:00:00 12.9 9 Este 21 Este 0 -- -- 87
2018-01-28 18:00:00 14 10 Nordeste 24 Nordeste 0 -- -- 83
2018-01-28 17:00:00 15.2 13 Nordeste 32 Nordeste 0 -- -- 79
2018-01-28 16:00:00 16 21 Este 35 Este 0 -- -- 79
2018-01-28 15:00:00 16.8 21 Este 35 Este 0 -- -- 77
2018-01-28 14:00:00 16.8 19 Este 34 Este 0 -- -- 77
2018-01-28 13:00:00 16.1 21 Este 34 Este 0 -- -- 82
2018-01-28 12:00:00 16.1 17 Este 33 Este 0 -- -- 84
2018-01-28 11:00:00 15.4 20 Este 39 Este 0 -- -- 84
2018-01-28 10:00:00 14.9 17 Nordeste 31 Este 0 -- -- 86
2018-01-28 09:00:00 14.3 19 Este 36 Nordeste 0.2 -- -- 89
2018-01-28 08:00:00 14.2 18 Nordeste 37 Este 0 -- -- 88
2018-01-28 07:00:00 14.2 16 Este 37 Este 0 -- -- 90
2018-01-28 06:00:00 14 18 Este 38 Este 0 -- -- 90
2018-01-28 05:00:00 14 20 Nordeste 40 Este 0 -- -- 87
2018-01-28 04:00:00 13.7 19 Nordeste 39 Nordeste 0 -- -- 87
2018-01-28 03:00:00 13.6 25 Nordeste 41 Nordeste 0 -- -- 87
2018-01-28 02:00:00 13.2 19 Nordeste 45 Nordeste 0 -- -- 88
2018-01-28 01:00:00 11.5 17 Nordeste 28 Nordeste 0 -- -- 91
2018-01-28 00:00:00 11.3 12 Nordeste 20 Nordeste 0 -- -- 92
2018-01-27 23:00:00 11.8 12 Nordeste 26 Este 0 -- -- 91
2018-01-27 22:00:00 12 15 Este 31 Este 0 -- -- 92
2018-01-27 21:00:00 11.6 14 Este 27 Nordeste 1.4 -- -- 93
2018-01-27 20:00:00 10.8 9 Nordeste 22 Norte 0.2 -- -- 95
2018-01-27 19:00:00 10.7 13 Nordeste 23 Nordeste 1.2 -- -- 96
2018-01-27 18:00:00 10.4 13 Norte 28 Norte 1 -- -- 95
2018-01-27 17:00:00 10.7 15 Nordeste 28 Nordeste 0.6 -- -- 94
2018-01-27 16:00:00 10.5 14 Nordeste 24 Nordeste 0.6 -- -- 94
2018-01-27 15:00:00 10.1 15 Nordeste 31 Norte 0.6 -- -- 95
2018-01-27 14:00:00 9.7 18 Nordeste 31 Nordeste 1.8 -- -- 96
2018-01-27 13:00:00 10.6 23 Nordeste 44 Nordeste 0 -- -- 86
2018-01-27 12:00:00 11.1 30 Nordeste 50 Nordeste 0 -- -- 80
2018-01-27 11:00:00 11.1 23 Nordeste 37 Norte 0 -- -- 79
2018-01-27 10:00:00 10.4 21 Nordeste 43 Nordeste 0 -- -- 81
2018-01-27 09:00:00 9.6 22 Nordeste 42 Norte 0 -- -- 85
2018-01-27 08:00:00 9.6 26 Nordeste 39 Nordeste 0 -- -- 87
2018-01-27 07:00:00 9.1 14 Norte 33 Norte 0 -- -- 87
2018-01-27 06:00:00 9.4 17 Nordeste 33 Norte 0 -- -- 89
2018-01-27 05:00:00 9.1 17 Norte 30 Norte 0 -- -- 92
2018-01-27 04:00:00 9.3 18 Norte 31 Norte 2 -- -- 96
2018-01-27 03:00:00 9.2 17 Nordeste 29 Nordeste 1.2 -- -- 95
2018-01-27 02:00:00 9.1 11 Norte 24 Norte 0.4 -- -- 94
2018-01-27 01:00:00 9.2 15 Norte 40 Nordeste 0 -- -- 94
2018-01-27 00:00:00 9 15 Norte 35 Norte 0 -- -- 89
2018-01-26 23:00:00 9.5 18 Nordeste 31 Norte 0 -- -- 86
2018-01-26 22:00:00 9 5 Norte 13 Norte 0 -- -- 88
2018-01-26 21:00:00 9.5 8 Norte 17 Norte 0 -- -- 88
2018-01-26 20:00:00 9.5 0 Calma 13 Oeste 0 -- -- 83
2018-01-26 19:00:00 10.8 4 Oeste 29 Noroeste 0 -- -- 78
2018-01-26 18:00:00 12.5 10 Sudoeste 25 Sudoeste 0 -- -- 71
2018-01-26 17:00:00 13.1 11 Sudoeste 24 Sudoeste 0 -- -- 68
2018-01-26 16:00:00 14.2 10 Sudoeste 24 Oeste 0 -- -- 67
2018-01-26 15:00:00 14.3 16 Oeste 36 Sudoeste 0 -- -- 72
2018-01-26 14:00:00 14.4 19 Sudoeste 33 Sudoeste 0 -- -- 69
2018-01-26 13:00:00 13.1 12 Sudoeste 24 Sudoeste 0.2 -- -- 81
2018-01-26 12:00:00 12.8 6 Sudoeste 19 Oeste 0 -- -- 81
2018-01-26 11:00:00 12.1 15 Oeste 30 Oeste 0 -- -- 87
2018-01-26 10:00:00 11.7 19 Noroeste 34 Noroeste 0.6 -- -- 90
2018-01-26 09:00:00 11.7 0 Calma 8 Este 0 -- -- 94
2018-01-26 08:00:00 12 6 Sudeste 9 Oeste 1 -- -- 92
2018-01-26 07:00:00 13.6 6 Oeste 29 Oeste 2.4 -- -- 88
2018-01-26 06:00:00 14.9 15 Sudoeste 31 Sudoeste 0 -- -- 85
2018-01-26 05:00:00 15 22 Sudoeste 37 Sudoeste 0 -- -- 86
2018-01-26 04:00:00 15 18 Sudoeste 39 Sudoeste 0 -- -- 86
2018-01-26 03:00:00 15 20 Sudoeste 34 Sur 0 -- -- 85
2018-01-26 02:00:00 14.9 19 Sudoeste 33 Sudoeste 0 -- -- 81
2018-01-26 01:00:00 14.5 17 Sudoeste 36 Sudoeste 0 -- -- 80
2018-01-26 00:00:00 14.5 18 Sudoeste 34 Sudoeste 0 -- -- 84
2018-01-25 23:00:00 14.6 18 Sudoeste 32 Sudoeste 0 -- -- 83
2018-01-25 22:00:00 14.3 13 Sudoeste 29 Sudoeste 0 -- -- 83
2018-01-25 21:00:00 14.2 14 Sudoeste 29 Sudoeste 0 -- -- 83
2018-01-25 20:00:00 13.7 10 Sudoeste 21 Sudoeste 0 -- -- 84
2018-01-25 19:00:00 13.2 11 Sudoeste 23 Sudoeste 0 -- -- 84
2018-01-25 18:00:00 13.5 12 Sudoeste 25 Sudoeste 0 -- -- 84
2018-01-25 17:00:00 14.7 9 Sudoeste 21 Sudoeste 0 -- -- 83
2018-01-25 16:00:00 16.6 9 Sudoeste 21 Sudoeste 0 -- -- 78
2018-01-25 15:00:00 17.4 7 Sur 21 Sur 0 -- -- 74
2018-01-25 14:00:00 17.1 13 Sur 23 Sur 0 -- -- 76
2018-01-25 13:00:00 16.8 14 Sur 26 Sur 0 -- -- 75
2018-01-25 12:00:00 16.4 14 Sur 23 Sur 0 -- -- 80
2018-01-25 11:00:00 11.4 3 Noroeste 5 Noroeste 0 -- -- 100
2018-01-25 10:00:00 7.4 0 Calma 0 Calma 0 -- -- 100
2018-01-25 09:00:00 3.9 0 Calma -- -- 0 -- -- 100
2018-01-25 08:00:00 2.6 0 Calma 2 Sudeste 0 -- -- 99
2018-01-25 07:00:00 2.6 0 Calma 3 Sudeste 0 -- -- 99
2018-01-25 06:00:00 2.7 0 Calma 2 Sudeste 0 -- -- 99
2018-01-25 05:00:00 2.9 2 Sudeste 3 Sudeste 0 -- -- 98
2018-01-25 04:00:00 3 0 Calma 3 Sudeste 0 -- -- 98
2018-01-25 03:00:00 3.5 0 Calma 3 Sur 0 -- -- 97
2018-01-25 02:00:00 3.6 0 Calma 3 Sudeste 0 -- -- 97
2018-01-25 01:00:00 4.5 0 Calma 3 Sudeste 0 -- -- 97
2018-01-25 00:00:00 5.1 0 Calma 3 Sudeste 0 -- -- 95
2018-01-24 23:00:00 6.2 0 Calma 5 Norte 0 -- -- 95
2018-01-24 22:00:00 7 0 Calma 3 Sur 0 -- -- 95
2018-01-24 21:00:00 6.7 0 Calma 5 Sudeste 0 -- -- 93
2018-01-24 20:00:00 8.1 5 Sudeste 5 Sudeste 0 -- -- 92
2018-01-24 19:00:00 9.6 3 Sudeste 6 Sudeste 0 -- -- 88
2018-01-24 18:00:00 14.2 3 Sur 10 Sur 0 -- -- 82
2018-01-24 17:00:00 16.6 6 Sur 16 Sur 0 -- -- 74
2018-01-24 16:00:00 17.5 9 Sur 17 Sudoeste 0 -- -- 70
2018-01-24 15:00:00 17.5 11 Sur 20 Sur 0 -- -- 71
2018-01-24 14:00:00 17.6 10 Sur 17 Sur 0 -- -- 71
2018-01-24 13:00:00 17.7 9 Sur 19 Sudeste 0 -- -- 71
2018-01-24 12:00:00 16.2 4 Oeste 8 Oeste 0 -- -- 84
2018-01-24 11:00:00 12.6 2 Noroeste 4 Norte 0 -- -- 91
2018-01-24 10:00:00 7.8 3 Norte 4 Norte 0 -- -- 97
2018-01-24 09:00:00 3.5 0 Calma 2 Sudeste 0 -- -- 99
2018-01-24 08:00:00 1.7 0 Calma 2 Sudeste 0 -- -- 97
2018-01-24 07:00:00 1.9 0 Calma 3 Sudeste 0 -- -- 97
2018-01-24 06:00:00 2.3 0 Calma 3 Sudeste 0 -- -- 97
2018-01-24 05:00:00 2.8 0 Calma 2 Sudeste 0 -- -- 97
2018-01-24 04:00:00 3.2 0 Calma 3 Norte 0 -- -- 97
2018-01-24 03:00:00 3.9 0 Calma 2 Nordeste 0 -- -- 96
2018-01-24 02:00:00 4.6 0 Calma 2 Sur 0 -- -- 96
2018-01-24 01:00:00 5.2 0 Calma 2 Norte 0 -- -- 95
2018-01-24 00:00:00 5.9 0 Calma 2 Norte 0 -- -- 95
2018-01-23 23:00:00 6.5 0 Calma 2 Oeste 0 -- -- 94
2018-01-23 22:00:00 7.2 0 Calma 4 Norte 0 -- -- 93
2018-01-23 21:00:00 8.1 0 Calma 2 Oeste 0 -- -- 92
2018-01-23 20:00:00 9.6 0 Calma 2 Nordeste 0 -- -- 89
2018-01-23 19:00:00 11.6 0 Calma 6 Sudeste 0 -- -- 87
2018-01-23 18:00:00 14.4 3 Sudeste 6 Sudoeste 0 -- -- 81
2018-01-23 17:00:00 16.6 4 Sur 12 Sur 0 -- -- 74
2018-01-23 16:00:00 18.7 8 Sudoeste 13 Sur 0 -- -- 62
2018-01-23 15:00:00 18.8 7 Sur 13 Sudoeste 0 -- -- 60
2018-01-23 14:00:00 19.1 8 Sudoeste 13 Sur 0 -- -- 56
2018-01-23 13:00:00 19.1 6 Sudoeste 12 Sur 0 -- -- 58
2018-01-23 12:00:00 18.1 6 Sur 10 Sudoeste 0 -- -- 68
2018-01-23 11:00:00 14.1 4 Noroeste 5 Noroeste 0 -- -- 86
2018-01-23 10:00:00 9.5 0 Calma 4 Oeste 0 -- -- 95
2018-01-23 09:00:00 5.7 0 Calma 2 Sudeste 0 -- -- 97
2018-01-23 08:00:00 3.3 0 Calma 3 Sudeste 0 -- -- 96
2018-01-23 07:00:00 3.6 0 Calma 4 Norte 0 -- -- 96
2018-01-23 06:00:00 3.8 0 Calma 4 Nordeste 0 -- -- 96
2018-01-23 05:00:00 3.7 0 Calma 3 Nordeste 0 -- -- 95
2018-01-23 04:00:00 4.4 0 Calma 4 Nordeste 0 -- -- 95
2018-01-23 03:00:00 5.4 0 Calma 5 Norte 0 -- -- 95
2018-01-23 02:00:00 6 4 Sur 8 Norte 0 -- -- 95
2018-01-23 01:00:00 6.8 2 Este 7 Sudeste 0 -- -- 95
2018-01-23 00:00:00 7.3 0 Calma 6 Sudeste 0 -- -- 94
2018-01-22 23:00:00 8.3 3 Sudeste 8 Nordeste 0 -- -- 93
2018-01-22 22:00:00 10.4 0 Calma 8 Nordeste 0 -- -- 90
2018-01-22 21:00:00 11.7 3 Noroeste 9 Oeste 0 -- -- 90
2018-01-22 20:00:00 13.5 5 Sudoeste 13 Oeste 0 -- -- 82
2018-01-22 19:00:00 14.6 4 Sudoeste 13 Oeste 0 -- -- 88
2018-01-22 18:00:00 15.4 5 Sudoeste 20 Sudoeste 0 -- -- 86
2018-01-22 17:00:00 16.8 13 Oeste 26 Oeste 0 -- -- 82
2018-01-22 16:00:00 17.4 17 Oeste 28 Oeste 0 -- -- 79
2018-01-22 15:00:00 17.8 15 Sudoeste 33 Oeste 0 -- -- 76
2018-01-22 14:00:00 17.9 14 Sudoeste 27 Sudoeste 0 -- -- 76
2018-01-22 13:00:00 17.9 20 Oeste 29 Oeste 0 -- -- 74
2018-01-22 12:00:00 20.1 11 Oeste 39 Noroeste 0 -- -- 57
2018-01-22 11:00:00 18.5 28 Noroeste 44 Oeste 0 -- -- 59
2018-01-22 10:00:00 16.6 15 Oeste 22 Oeste 0 -- -- 78
2018-01-22 09:00:00 16 6 Sudoeste 26 Oeste 0 -- -- 67
2018-01-22 08:00:00 15.5 19 Oeste 30 Noroeste 0 -- -- 66
2018-01-22 07:00:00 15.3 12 Oeste 34 Oeste 0 -- -- 68
2018-01-22 06:00:00 15.2 19 Oeste 32 Noroeste 0 -- -- 70
2018-01-22 05:00:00 15.6 26 Noroeste 39 Noroeste 0 -- -- 70
2018-01-22 04:00:00 15.1 10 Oeste 28 Oeste 0 -- -- 83
2018-01-22 03:00:00 15.1 14 Oeste 21 Oeste 0 -- -- 80
2018-01-22 02:00:00 15.4 15 Oeste 23 Oeste 0 -- -- 80
2018-01-22 01:00:00 15.6 13 Oeste 25 Oeste 0 -- -- 83
2018-01-22 00:00:00 15.1 2 Oeste 30 Oeste 0 -- -- 83